Belmont, TX (78604)

2:15 PM CDT on July 01, 2015 (GMT -0500)
Saltcreek Ranch | | Change Station
CLOSE
Current Station
Personal Weather Station
Location: Seguin, TX
Elevation: 466 ft
Nearby Weather Stations

Elev 466 ft 29.53 °N, 97.83 °W | Updated 13 minutes ago

Overcast
Overcast
75.1 °F
Feels Like 74 °F
N
0.0
Wind Variable Wind from SW
Gusts 1.0 mph

Today
High -- | Low -- °F
--% Chance of Precip.
Yesterday
High -- | Low -- °F
Precip. -- in
6:34 AM 8:34 PM
Full, 100% visible
Pressure 30.06 in
Visibility 10.0 miles
Clouds Scattered Clouds 2000 ft
Mostly Cloudy 3200 ft
Overcast 10000 ft
Heat Index 74 °F
Dew Point 72 °F
Humidity 91%
Rainfall 0.11 in
Snow Depth Not available.
UV 4 out of 12
Pollen 4.10 out of 12
Air Quality Not available.
Flu Activity Not available.
METAR KT20 011855Z AUTO 21015G22KT 10SM SCT020 BKN032 OVC100 28/22 A3006 RMK AO2 LTG DSNT SE T02830223

More Conditions Fewer Conditions

Pressure 30.06 in
Visibility 10.0 miles
Clouds Scattered Clouds 2000 ft
Mostly Cloudy 3200 ft
Overcast 10000 ft
Heat Index 74 °F
Dew Point 72 °F
Humidity 91%
Rainfall 0.11 in
Snow Depth Not available.
UV 4 out of 12
Pollen 4.10 out of 12
Air Quality Not available.
Flu Activity Not available.
METAR KT20 011855Z AUTO 21015G22KT 10SM SCT020 BKN032 OVC100 28/22 A3006 RMK AO2 LTG DSNT SE T02830223

More Conditions Fewer Conditions

Nowcast | as of 2:08 PM CDT on July 1, 2015

Showers and thunderstorms continue to develop and move northwest across south central Texas. Rainfall will average one quarter to one half inch with isolated locations receiving one to two inches. The brief heavy downpours may cause localized flooding. In addition to locally heavy rainfall gusty winds to 50 mph and cloud to ground lightning are possible.

×

10-Day Weather Forecast

×

Almanac

Astronomy

Jul. 01, 2015 Rise Set
Actual Time
Civil Twilight
Nautical Twilight
Astronomical Twilight
Moon
Length of Visible Light
Length of Day
Tomorrow will be .
, % of the Moon is Illuminated

Today's Extremes

State Highs State Lows

Community

WunderPhotos

Upload Photos

1,834,243 photos uploaded!

WunderBlogs® & News

Nearby

Air Quality

  Air Quality AQ Index Pollutant
Not available.

Snow Depth

Station Depth Elevation

Earthquake Activity

City Distance Mag. Time & Date
Minimum magnitude displayed is 2.5.

Coastal Water Temperatures

Place Temperature

Stations

Nearby Weather Stations

Station Location Temp. Windchill Dew Point Humidity Wind Precip. Elev Updated Type